Data for 07/25/2007

Time Sea-Level Adjusted Pressure Absolute Pressure Temperature Relative Humidity Dew Point   
(mb) (inHg) (mb) (inHg) (C) (F) (%) (C) (F)
00:05 1018 30.06 847 25.01 18.5 65.3 80 15.1 59.2
00:10 1018 30.06 848 25.04 18.6 65.6 80 15.2 59.4
00:15 1018 30.06 848 25.04 18.8 65.9 80 15.3 59.6
00:20 1018 30.06 848 25.04 18.7 65.7 78 14.9 58.8
00:25 1018 30.06 848 25.04 18.8 65.8 77 14.7 58.5
00:30 1018 30.06 848 25.04 18.7 65.7 78 14.9 58.8
00:35 1018 30.06 848 25.04 18.4 65.2 78 14.6 58.2
00:40 1018 30.06 847 25.01 18.3 65 80 14.9 58.9
00:45 1018 30.06 847 25.01 18.3 65 79 14.6 58.3
00:50 1018 30.06 847 25.01 18.5 65.2 81 15.2 59.3
00:55 1018 30.06 848 25.04 18.7 65.7 80 15.2 59.4
01:00 1018 30.06 848 25.04 18.7 65.6 78 14.7 58.5
01:05 1019 30.09 848 25.04 18.6 65.5 78 14.8 58.7
01:10 1019 30.09 848 25.04 18.5 65.3 78 14.7 58.5
01:15 1019 30.09 848 25.04 18.5 65.3 78 14.7 58.4
01:20 1019 30.09 848 25.04 18.5 65.3 80 15.1 59.1
01:25 1018 30.06 848 25.04 18.5 65.2 78 14.6 58.3
01:30 1018 30.06 848 25.04 18.5 65.4 81 15.3 59.5
01:35 1018 30.06 848 25.04 18.7 65.6 81 15.3 59.6
01:40 1018 30.06 848 25.04 18.6 65.5 78 14.8 58.7
01:45 1018 30.06 848 25.04 18.2 64.8 80 14.8 58.6
01:50 1018 30.06 848 25.04 18.1 64.6 80 14.6 58.2
01:55 1018 30.06 848 25.04 18.1 64.7 79 14.5 58.1
02:00 1018 30.06 847 25.01 18.2 64.8 80 14.8 58.6
02:05 1018 30.06 847 25.01 18.3 64.9 82 15.1 59.2
02:10 1018 30.06 847 25.01 18.3 64.9 80 14.9 58.8
02:15 1018 30.06 847 25.01 18.2 64.8 83 15.3 59.5
02:20 1018 30.06 847 25.01 17.9 64.2 81 14.6 58.2
02:25 1018 30.06 847 25.01 17.7 63.8 82 14.6 58.3
02:30 1018 30.06 847 25.01 17.5 63.5 82 14.5 58.1
02:35 1018 30.06 847 25.01 17.4 63.4 82 14.4 57.9
02:40 1018 30.06 847 25.01 17.4 63.4 81 14.2 57.5
02:45 1018 30.06 847 25.01 17.7 63.8 83 14.8 58.6
02:50 1018 30.06 847 25.01 17.8 64.1 80 14.4 57.9
02:55 1018 30.06 847 25.01 17.9 64.2 80 14.5 58
03:00 1018 30.06 847 25.01 17.8 64.1 79 14.2 57.6
03:05 1018 30.06 847 25.01 17.8 64.1 79 14.2 57.5
03:10 1018 30.06 847 25.01 17.8 64 79 14.2 57.5
03:15 1018 30.06 847 25.01 17.8 64.1 79 14.2 57.6
03:20 1018 30.06 847 25.01 18 64.5 83 15.1 59.2
03:25 1018 30.06 847 25.01 18.1 64.6 79 14.4 57.9
03:30 1018 30.06 847 25.01 17.8 64.1 80 14.4 57.9
03:35 1018 30.06 847 25.01 17.7 63.8 80 14.2 57.6
03:40 1018 30.06 847 25.01 17.6 63.6 81 14.3 57.8
03:45 1018 30.06 847 25.01 17.5 63.6 80 14 57.2
03:50 1018 30.06 847 25.01 17.7 63.8 80 14.2 57.6
03:55 1018 30.06 847 25.01 17.7 63.8 81 14.3 57.8
04:00 1018 30.06 847 25.01 17.6 63.7 81 14.3 57.7
04:05 1018 30.06 847 25.01 17.6 63.6 82 14.4 58
04:10 1018 30.06 847 25.01 17.4 63.3 83 14.5 58.2
04:15 1018 30.06 847 25.01 17.4 63.3 83 14.4 58
04:20 1018 30.06 847 25.01 17.5 63.4 82 14.3 57.8
04:25 1018 30.06 847 25.01 17.4 63.4 82 14.3 57.8
04:30 1018 30.06 848 25.04 17.5 63.5 84 14.9 58.7
04:35 1018 30.06 848 25.04 17.7 63.9 83 14.7 58.5
04:40 1018 30.06 848 25.04 17.9 64.2 79 14.2 57.5
04:45 1019 30.09 848 25.04 17.8 64.1 79 14.2 57.6
04:50 1019 30.09 848 25.04 17.8 64 80 14.2 57.6
04:55 1019 30.09 848 25.04 17.7 63.9 80 14.2 57.5
05:00 1019 30.09 848 25.04 17.7 63.8 79 14.1 57.4
05:05 1019 30.09 848 25.04 17.7 63.9 82 14.7 58.5
05:10 1019 30.09 848 25.04 17.8 64 82 14.6 58.3
05:15 1019 30.09 848 25.04 17.8 64 81 14.6 58.2
05:20 1019 30.09 848 25.04 17.7 63.8 80 14.2 57.6
05:25 1019 30.09 848 25.04 17.6 63.7 80 14.3 57.7
05:30 1019 30.09 848 25.04 17.6 63.6 81 14.3 57.8
05:35 1019 30.09 848 25.04 17.5 63.6 81 14.3 57.7
05:40 1019 30.09 848 25.04 17.6 63.6 84 14.8 58.7
05:45 1019 30.09 848 25.04 17.7 63.8 83 14.7 58.5
05:50 1019 30.09 848 25.04 17.4 63.3 84 14.8 58.6
05:55 1019 30.09 848 25.04 17.4 63.2 84 14.7 58.5
06:00 1019 30.09 848 25.04 17.6 63.6 84 14.9 58.9
06:05 1019 30.09 848 25.04 17.7 63.8 81 14.4 57.8
06:10 1019 30.09 848 25.04 17.6 63.6 82 14.4 57.9
06:15 1019 30.09 848 25.04 17.5 63.5 85 14.9 58.8
06:20 1019 30.09 848 25.04 17.8 64 83 14.8 58.6
06:25 1019 30.09 848 25.04 17.9 64.3 80 14.5 58.1
06:30 1019 30.09 848 25.04 18 64.3 80 14.4 58
06:35 1019 30.09 848 25.04 17.9 64.3 81 14.6 58.2
06:40 1019 30.09 849 25.07 17.8 64 82 14.7 58.4
06:45 1019 30.09 849 25.07 17.6 63.7 81 14.4 57.8
06:50 1019 30.09 849 25.07 17.6 63.6 83 14.8 58.6
06:55 1019 30.09 849 25.07 17.8 64 80 14.3 57.8
07:00 1019 30.09 849 25.07 17.9 64.1 80 14.4 57.9
07:05 1019 30.09 849 25.07 17.7 63.8 82 14.6 58.3
07:10 1019 30.09 849 25.07 17.6 63.7 81 14.3 57.8
07:15 1019 30.09 849 25.07 17.6 63.6 81 14.4 57.9
07:20 1019 30.09 849 25.07 17.6 63.6 81 14.4 57.9
07:25 1020 30.12 849 25.07 17.7 63.9 81 14.4 57.8
07:30 1020 30.12 849 25.07 17.8 64 80 14.3 57.8
07:35 1020 30.12 849 25.07 18 64.3 79 14.3 57.8
07:40 1020 30.12 849 25.07 18.1 64.5 82 14.9 58.8
07:45 1020 30.12 849 25.07 18 64.5 82 14.9 58.9
07:50 1020 30.12 849 25.07 18.4 65.1 80 14.9 58.9
07:55 1020 30.12 849 25.07 18.5 65.3 77 14.5 58.1
08:00 1020 30.12 849 25.07 18.5 65.2 77 14.4 58
08:05 1020 30.12 849 25.07 18.7 65.6 77 14.7 58.4
08:10 1020 30.12 849 25.07 19 66.1 76 14.7 58.5
08:15 1020 30.12 849 25.07 19.2 66.6 77 15.1 59.2
08:20 1020 30.12 849 25.07 19.3 66.8 76 15 59
08:25 1020 30.12 849 25.07 19.2 66.5 78 15.2 59.4
08:30 1020 30.12 849 25.07 19.5 67 75 15 59.1
08:35 1020 30.12 849 25.07 19.7 67.5 75 15.1 59.2
08:40 1020 30.12 849 25.07 19.9 67.8 72 14.8 58.6
08:45 1020 30.12 849 25.07 20.2 68.3 73 15.2 59.4
08:50 1020 30.12 849 25.07 20.2 68.3 74 15.5 60
08:55 1020 30.12 849 25.07 19.9 67.9 75 15.3 59.6
09:00 1020 30.12 849 25.07 20.1 68.1 73 15.2 59.4
09:05 1020 30.12 849 25.07 20.8 69.4 71 15.3 59.6
09:10 1020 30.12 849 25.07 21.1 70.1 69 15.3 59.5
09:15 1020 30.12 849 25.07 21.3 70.4 67 15 59
09:20 1020 30.12 849 25.07 21.8 71.3 63 14.7 58.4
09:25 1020 30.12 849 25.07 22.3 72.2 61 14.5 58.1
09:30 1020 30.12 849 25.07 22.1 71.8 62 14.7 58.5
09:35 1020 30.12 849 25.07 21.1 70 64 14.1 57.3
09:40 1020 30.12 849 25.07 21.1 70 64 14.1 57.4
09:45 1020 30.12 849 25.07 21.7 71.1 62 14.2 57.5
09:50 1020 30.12 849 25.07 22.4 72.2 58 13.8 56.8
09:55 1020 30.12 849 25.07 21.8 71.2 61 14 57.3
10:00 1020 30.12 849 25.07 22.4 72.4 60 14.3 57.8
10:05 1020 30.12 849 25.07 22.5 72.4 60 14.4 57.9
10:10 1020 30.12 849 25.07 22.9 73.2 59 14.7 58.5
10:15 1020 30.12 849 25.07 23.5 74.3 57 14.5 58.1
10:20 1020 30.12 849 25.07 24.1 75.3 55 14.5 58.1
10:25 1020 30.12 849 25.07 23.7 74.6 55 14.3 57.8
10:30 1020 30.12 849 25.07 23.5 74.3 56 14.3 57.7
10:35 1020 30.12 849 25.07 24.1 75.4 54 14.4 58
10:40 1020 30.12 849 25.07 23.6 74.5 55 14.1 57.3
10:45 1020 30.12 849 25.07 24.6 76.3 52 14.1 57.4
10:50 1020 30.12 849 25.07 24.6 76.2 53 14.4 57.9
10:55 1020 30.12 849 25.07 24.8 76.6 50 13.9 56.9
11:00 1020 30.12 849 25.07 25.4 77.8 48 13.9 57.1
11:05 1020 30.12 849 25.07 25.3 77.5 51 14.5 58
11:10 1020 30.12 849 25.07 24.5 76.1 52 14.2 57.5
11:15 1020 30.12 849 25.07 25.1 77.2 51 14.4 57.9
11:20 1020 30.12 849 25.07 24.6 76.4 50 13.8 56.9
11:25 1020 30.12 849 25.07 25.2 77.3 48 13.6 56.4
11:30 1020 30.12 849 25.07 25.7 78.3 45 13 55.5
11:35 1020 30.12 849 25.07 25.8 78.4 45 13.1 55.5
11:40 1020 30.12 849 25.07 26.2 79.1 43 13 55.3
11:45 1020 30.12 849 25.07 26.9 80.4 41 12.7 54.8
11:50 1020 30.12 849 25.07 26.2 79.1 44 13.2 55.7
11:55 1020 30.12 849 25.07 25.8 78.5 44 12.7 54.9
12:00 1020 30.12 849 25.07 25.8 78.4 43 12.4 54.3
12:05 1020 30.12 849 25.07 26.9 80.3 40 12.3 54.2
12:10 1020 30.12 849 25.07 26.8 80.2 42 12.9 55.3
12:15 1020 30.12 849 25.07 26.1 79 44 13 55.4
12:20 1020 30.12 849 25.07 25.3 77.6 44 12.3 54.2
12:25 1020 30.12 849 25.07 26.2 79.2 41 12 53.7
12:30 1019 30.09 849 25.07 26.4 79.5 41 12.2 53.9
12:35 1019 30.09 849 25.07 25.9 78.7 41 11.9 53.5
12:40 1019 30.09 849 25.07 26.7 80.1 38 11.3 52.3
12:45 1019 30.09 848 25.04 27.6 81.6 33 10.2 50.4
12:50 1019 30.09 848 25.04 27.3 81.2 38 12 53.6
12:55 1019 30.09 848 25.04 27.6 81.7 36 11.4 52.5
13:00 1019 30.09 848 25.04 27.3 81.1 37 11.4 52.5
13:05 1019 30.09 848 25.04 27.2 81 35 10.7 51.3
13:10 1019 30.09 848 25.04 27.4 81.3 36 11.4 52.6
13:15 1019 30.09 848 25.04 26.8 80.3 37 11.2 52.2
13:20 1019 30.09 848 25.04 26.9 80.3 36 10.8 51.4
13:25 1019 30.09 848 25.04 27 80.5 35 10.4 50.8
13:30 1019 30.09 848 25.04 27.2 81 34 10.3 50.5
13:35 1019 30.09 848 25.04 27.8 82.1 32 10 49.9
13:40 1019 30.09 848 25.04 28.3 82.9 32 10.5 50.9
13:45 1019 30.09 848 25.04 28.6 83.4 31 10.1 50.2
13:50 1019 30.09 848 25.04 28.8 83.9 31 10.2 50.4
13:55 1019 30.09 848 25.04 28.6 83.5 33 11.1 51.9
14:00 1018 30.06 848 25.04 29.2 84.5 31 10.5 51
14:05 1018 30.06 848 25.04 29.6 85.2 31 11.1 51.9
14:10 1018 30.06 848 25.04 28.3 82.9 32 10.5 50.9
14:15 1018 30.06 848 25.04 29.3 84.7 30 10.1 50.2
14:20 1018 30.06 847 25.01 29.3 84.8 30 10.3 50.5
14:25 1018 30.06 847 25.01 29.5 85.1 29 9.7 49.4
14:30 1018 30.06 847 25.01 30.1 86.2 27 9.5 49.1
14:35 1018 30.06 847 25.01 29 84.1 30 10.1 50.2
14:40 1018 30.06 847 25.01 29.4 85 27 8.7 47.7
14:45 1018 30.06 847 25.01 29.8 85.7 27 9 48.3
14:50 1018 30.06 847 25.01 30 85.9 28 9.8 49.7
14:55 1018 30.06 847 25.01 30.6 87.1 26 9.5 49.1
15:00 1018 30.06 847 25.01 30.6 87.1 25 8.6 47.4
15:05 1018 30.06 847 25.01 29.9 85.8 27 9.4 49
15:10 1018 30.06 847 25.01 30.6 87 27 9.7 49.4
15:15 1018 30.06 847 25.01 30.2 86.3 28 10.2 50.4
15:20 1018 30.06 847 25.01 30.2 86.3 27 9.7 49.4
15:25 1018 30.06 847 25.01 30.6 87 26 9.1 48.3
15:30 1018 30.06 847 25.01 30.6 87.2 26 9.2 48.5
15:35 1018 30.06 847 25.01 30.7 87.3 26 9.6 49.2
15:40 1018 30.06 847 25.01 30.5 86.8 27 9.5 49.1
15:45 1018 30.06 847 25.01 30.2 86.3 26 9.1 48.3
15:50 1018 30.06 847 25.01 29.2 84.6 28 9.3 48.7
15:55 1018 30.06 847 25.01 29 84.2 28 9 48.2
16:00 1018 30.06 847 25.01 30.2 86.4 26 9 48.2
16:05 1018 30.06 847 25.01 30.6 87.1 27 9.6 49.3
16:10 1018 30.06 847 25.01 29.9 85.8 28 9.8 49.7
16:15 1017 30.03 847 25.01 28.9 84 29 9.3 48.8
16:20 1017 30.03 847 25.01 29.3 84.8 28 9.5 49
16:25 1017 30.03 847 25.01 29.7 85.5 28 9.5 49
16:30 1018 30.06 847 25.01 30.1 86.2 29 10.7 51.2
16:35 1018 30.06 847 25.01 29.7 85.5 28 9.8 49.6
16:40 1018 30.06 847 25.01 29.7 85.5 29 10.2 50.3
16:45 1017 30.03 847 25.01 29.9 85.7 29 10.3 50.6
16:50 1017 30.03 847 25.01 29.1 84.3 31 10.4 50.8
16:55 1017 30.03 847 25.01 28.5 83.3 31 10 50.1
17:00 1018 30.06 847 25.01 29.1 84.4 30 9.9 49.9
17:05 1018 30.06 847 25.01 29.2 84.5 30 10.2 50.4
17:10 1018 30.06 847 25.01 29.2 84.5 31 10.6 51
17:15 1018 30.06 847 25.01 28.7 83.7 33 10.9 51.7
17:20 1018 30.06 847 25.01 28.8 83.9 32 10.8 51.4
17:25 1018 30.06 847 25.01 28.6 83.4 33 11.1 52
17:30 1018 30.06 847 25.01 28.3 82.9 34 11.3 52.4
17:35 1018 30.06 847 25.01 28 82.4 36 11.9 53.4
17:40 1017 30.03 847 25.01 28.1 82.5 34 11.1 52.1
17:45 1017 30.03 847 25.01 27.7 81.8 37 11.9 53.5
17:50 1017 30.03 847 25.01 27.4 81.3 37 11.6 52.8
17:55 1017 30.03 847 25.01 27.3 81.1 38 11.8 53.2
18:00 1017 30.03 847 25.01 27.1 80.8 37 11.5 52.7
18:05 1017 30.03 847 25.01 27 80.6 37 11.4 52.6
18:10 1017 30.03 847 25.01 26.9 80.4 37 11.2 52.2
18:15 1017 30.03 847 25.01 26.8 80.3 37 11.2 52.2
18:20 1018 30.06 847 25.01 26.7 80.1 37 11.2 52.2
18:25 1018 30.06 847 25.01 26.6 79.8 37 10.9 51.7
18:30 1018 30.06 847 25.01 26.5 79.6 38 11.1 52
18:35 1018 30.06 847 25.01 26.4 79.5 38 11 51.9
18:40 1018 30.06 847 25.01 26.3 79.4 38 11 51.9
18:45 1018 30.06 847 25.01 26.2 79.1 38 11 51.8
18:50 1018 30.06 847 25.01 25.9 78.7 40 11.4 52.5
18:55 1018 30.06 847 25.01 25.8 78.4 39 10.9 51.6
19:00 1018 30.06 847 25.01 25.9 78.5 38 10.9 51.6
19:05 1018 30.06 847 25.01 25.9 78.6 39 11.2 52.2
19:10 1018 30.06 847 25.01 25.9 78.6 39 11.2 52.2
19:15 1018 30.06 847 25.01 26 78.7 41 11.8 53.2
19:20 1018 30.06 847 25.01 25.8 78.5 45 13.3 55.9
19:25 1018 30.06 847 25.01 25.6 78.1 41 11.7 53.1
19:30 1018 30.06 847 25.01 26.1 78.9 41 12.2 53.9
19:35 1018 30.06 847 25.01 26 78.8 42 12.2 53.9
19:40 1018 30.06 847 25.01 25.9 78.5 42 12.2 53.9
19:45 1018 30.06 847 25.01 25.7 78.2 42 12.1 53.7
19:50 1018 30.06 847 25.01 25.6 78.1 43 12.2 54
19:55 1018 30.06 847 25.01 25.5 77.9 43 12.2 53.9
20:00 1018 30.06 847 25.01 25.5 77.9 42 12 53.7
20:05 1018 30.06 847 25.01 25.5 78 43 12.4 54.3
20:10 1018 30.06 847 25.01 25.5 77.9 42 12 53.5
20:15 1018 30.06 847 25.01 25.4 77.8 46 13.2 55.7
20:20 1018 30.06 847 25.01 25.3 77.5 48 13.5 56.3
20:25 1018 30.06 847 25.01 24.8 76.6 50 13.8 56.8
20:30 1018 30.06 847 25.01 24.2 75.5 48 12.8 55
20:35 1018 30.06 848 25.04 23.7 74.6 47 11.9 53.4
20:40 1019 30.09 848 25.04 23.4 74 47 11.4 52.6
20:45 1019 30.09 848 25.04 23.3 74 45 11 51.7
20:50 1019 30.09 848 25.04 23.3 74 45 11 51.8
20:55 1019 30.09 848 25.04 23.3 73.9 48 11.7 53.1
21:00 1019 30.09 848 25.04 23 73.4 50 12.3 54.1
21:05 1019 30.09 848 25.04 22.7 72.8 56 13.5 56.3
21:10 1019 30.09 848 25.04 21.9 71.4 60 13.8 56.9
21:15 1019 30.09 848 25.04 21.2 70.1 62 13.8 56.9
21:20 1019 30.09 848 25.04 21 69.7 65 14.2 57.6
21:25 1019 30.09 848 25.04 20.9 69.6 67 14.5 58.2
21:30 1019 30.09 848 25.04 20.8 69.4 68 14.7 58.4
21:35 1019 30.09 849 25.07 20.5 68.9 71 15.2 59.3
21:40 1019 30.09 849 25.07 20.1 68.2 73 15.2 59.4
21:45 1019 30.09 849 25.07 20 67.9 73 15.1 59.3
21:50 1019 30.09 849 25.07 19.8 67.6 76 15.5 59.8
21:55 1019 30.09 849 25.07 19.8 67.7 72 14.7 58.5
22:00 1020 30.12 849 25.07 19.8 67.7 74 15.1 59.1
22:05 1020 30.12 849 25.07 19.6 67.3 76 15.3 59.5
22:10 1020 30.12 849 25.07 19.3 66.8 77 15.3 59.6
22:15 1020 30.12 849 25.07 18.9 65.9 79 15.2 59.3
22:20 1020 30.12 849 25.07 18.6 65.5 81 15.3 59.5
22:25 1020 30.12 849 25.07 18.4 65.1 82 15.3 59.5
22:30 1020 30.12 849 25.07 18.5 65.4 80 15 59
22:35 1020 30.12 849 25.07 18.6 65.5 80 15.1 59.3
22:40 1020 30.12 849 25.07 18.6 65.4 79 14.9 58.9
22:45 1020 30.12 849 25.07 18.6 65.5 78 14.7 58.4
22:50 1020 30.12 849 25.07 18.6 65.5 78 14.7 58.5
22:55 1020 30.12 849 25.07 18.5 65.3 77 14.4 57.8
23:00 1020 30.12 849 25.07 18.4 65 78 14.5 58.1
23:05 1020 30.12 849 25.07 18.2 64.7 77 14.1 57.5
23:10 1020 30.12 849 25.07 18.3 64.9 75 13.9 57
23:15 1020 30.12 850 25.1 18.3 64.9 75 13.8 56.9
23:20 1020 30.12 850 25.1 18.2 64.7 76 13.9 56.9
23:25 1020 30.12 850 25.1 18.1 64.5 77 14 57.2
23:30 1020 30.12 850 25.1 18 64.3 77 14 57.2
23:35 1020 30.12 850 25.1 18 64.3 76 13.8 56.8
23:40 1020 30.12 850 25.1 17.9 64.3 76 13.6 56.5
23:45 1020 30.12 850 25.1 18 64.4 77 13.9 57
23:50 1020 30.12 850 25.1 18 64.4 77 13.9 57
23:55 1021 30.15 850 25.1 17.9 64.3 79 14.3 57.8
24:00 1021 30.15 850 25.1 17.9 64.2 82 14.8 58.6